createdAt,value
2019-05-15T00:02:30.072Z,11.50
2019-05-15T00:05:01.259Z,11.46
2019-05-15T00:07:32.420Z,11.36
2019-05-15T00:10:03.519Z,11.31
2019-05-15T00:12:34.692Z,11.20
2019-05-15T00:15:06.158Z,11.21
2019-05-15T00:17:39.286Z,11.17
2019-05-15T00:20:10.802Z,11.10
2019-05-15T00:22:41.848Z,11.04
2019-05-15T00:25:13.131Z,11.00
2019-05-15T00:27:44.252Z,11.03
2019-05-15T00:30:15.568Z,10.98
2019-05-15T00:32:48.684Z,10.95
2019-05-15T00:35:19.429Z,10.93
2019-05-15T00:37:50.570Z,10.90
2019-05-15T00:40:22.050Z,10.79
2019-05-15T00:42:53.080Z,10.80
2019-05-15T00:45:25.044Z,10.87
2019-05-15T00:47:57.913Z,10.87
2019-05-15T00:50:28.992Z,10.86
2019-05-15T00:53:00.131Z,10.83
2019-05-15T00:55:32.106Z,10.73
2019-05-15T00:58:03.107Z,10.76
2019-05-15T01:00:43.286Z,10.81
2019-05-15T01:03:14.662Z,10.81
2019-05-15T01:05:47.860Z,10.77
2019-05-15T01:08:19.174Z,10.68
2019-05-15T01:10:50.748Z,10.65
2019-05-15T01:13:21.758Z,10.64
2019-05-15T01:15:52.849Z,10.62
2019-05-15T01:18:25.102Z,10.69
2019-05-15T01:20:58.673Z,10.76
2019-05-15T01:23:29.626Z,10.71
2019-05-15T01:26:01.883Z,10.75
2019-05-15T01:28:32.896Z,10.74
2019-05-15T01:31:03.977Z,10.73
2019-05-15T01:33:35.057Z,10.75
2019-05-15T01:36:08.345Z,10.61
2019-05-15T01:38:39.128Z,10.62
2019-05-15T01:41:10.199Z,10.49
2019-05-15T01:43:41.245Z,10.50
2019-05-15T01:46:12.316Z,10.44
2019-05-15T01:48:43.313Z,10.39
2019-05-15T01:51:14.353Z,10.38
2019-05-15T01:53:47.828Z,10.33
2019-05-15T01:56:18.962Z,10.29
2019-05-15T01:58:50.054Z,10.37
2019-05-15T02:01:21.069Z,10.34
2019-05-15T02:03:52.138Z,10.36
2019-05-15T02:06:23.217Z,10.29
2019-05-15T02:08:54.226Z,10.33
2019-05-15T02:11:25.293Z,10.35
2019-05-15T02:13:58.637Z,10.32
2019-05-15T02:16:29.713Z,10.39
2019-05-15T02:19:00.735Z,10.44
2019-05-15T02:21:31.748Z,10.38
2019-05-15T02:24:04.049Z,10.25
2019-05-15T02:26:35.036Z,10.05
2019-05-15T02:29:07.831Z,9.85
2019-05-15T02:31:39.309Z,9.64
2019-05-15T02:34:10.591Z,9.62
2019-05-15T02:36:41.598Z,9.62
2019-05-15T02:39:12.587Z,9.61
2019-05-15T02:41:43.565Z,9.62
2019-05-15T02:44:14.633Z,9.62
2019-05-15T02:46:45.609Z,9.63
2019-05-15T02:49:19.210Z,9.66
2019-05-15T02:51:49.560Z,9.56
2019-05-15T02:54:20.561Z,9.39
2019-05-15T02:56:51.535Z,9.34
2019-05-15T02:59:22.629Z,9.17
2019-05-15T03:01:53.674Z,9.18
2019-05-15T03:04:25.371Z,9.09
2019-05-15T03:07:00.168Z,9.04
2019-05-15T03:09:29.992Z,9.03
2019-05-15T03:12:01.352Z,8.98
2019-05-15T03:14:32.418Z,9.03
2019-05-15T03:17:03.612Z,8.96
2019-05-15T03:19:34.801Z,9.00
2019-05-15T03:22:09.467Z,8.86
2019-05-15T03:24:39.678Z,8.91
2019-05-15T03:27:10.828Z,8.86
2019-05-15T03:29:41.984Z,8.80
2019-05-15T03:32:25.301Z,8.70
2019-05-15T03:34:48.008Z,8.75
2019-05-15T03:37:22.246Z,8.73
2019-05-15T03:39:52.037Z,8.76
2019-05-15T03:42:23.283Z,8.79
2019-05-15T03:44:54.358Z,8.72
2019-05-15T03:47:25.413Z,8.73
2019-05-15T03:49:59.891Z,8.64
2019-05-15T03:52:29.996Z,8.65
2019-05-15T03:55:01.030Z,8.70
2019-05-15T03:57:32.156Z,8.83
2019-05-15T04:00:03.236Z,8.88
2019-05-15T04:02:34.281Z,9.02
2019-05-15T04:05:06.141Z,9.02
2019-05-15T04:07:39.734Z,9.09
2019-05-15T04:10:11.743Z,9.16
2019-05-15T04:12:42.792Z,9.27
2019-05-15T04:15:14.155Z,9.23
2019-05-15T04:17:45.136Z,9.27
2019-05-15T04:20:20.058Z,9.30
2019-05-15T04:22:50.123Z,9.30
2019-05-15T04:25:21.204Z,9.34
2019-05-15T04:27:53.005Z,9.31
2019-05-15T04:30:25.398Z,9.16
2019-05-15T04:32:59.489Z,9.06
2019-05-15T04:35:30.221Z,9.03
2019-05-15T04:38:01.202Z,9.05
2019-05-15T04:40:32.225Z,9.03
2019-05-15T04:43:03.304Z,9.09
2019-05-15T04:45:35.457Z,9.11
2019-05-15T04:48:10.179Z,9.15
2019-05-15T04:50:40.316Z,9.19
2019-05-15T04:53:12.428Z,9.23
2019-05-15T04:55:43.421Z,9.32
2019-05-15T04:58:14.473Z,9.38
2019-05-15T05:00:50.624Z,9.40
2019-05-15T05:03:21.938Z,9.43
2019-05-15T05:05:53.004Z,9.47
2019-05-15T05:08:24.242Z,9.49
2019-05-15T05:10:58.853Z,9.55
2019-05-15T05:13:28.907Z,9.73
2019-05-15T05:15:59.996Z,9.79
2019-05-15T05:18:31.576Z,9.74
2019-05-15T05:21:02.754Z,9.77
2019-05-15T05:23:33.831Z,9.90
2019-05-15T05:26:08.816Z,9.93
2019-05-15T05:28:38.688Z,10.05
2019-05-15T05:31:09.703Z,10.09
2019-05-15T05:33:40.799Z,10.08
2019-05-15T05:36:11.813Z,10.17
2019-05-15T05:38:42.889Z,10.20
2019-05-15T05:41:14.094Z,10.22
2019-05-15T05:43:45.404Z,10.17
2019-05-15T05:46:18.418Z,10.16
2019-05-15T05:48:49.163Z,10.14
2019-05-15T05:51:20.428Z,10.28
2019-05-15T05:53:51.421Z,10.31
2019-05-15T05:56:22.594Z,10.32
2019-05-15T05:58:53.596Z,10.38
2019-05-15T06:01:28.038Z,10.45
2019-05-15T06:03:58.476Z,10.51
2019-05-15T06:06:29.455Z,10.61
2019-05-15T06:09:00.421Z,10.60
2019-05-15T06:11:33.037Z,10.63
2019-05-15T06:14:04.441Z,10.69
2019-05-15T06:16:35.561Z,10.79
2019-05-15T06:19:08.289Z,10.86
2019-05-15T06:21:53.800Z,10.92
2019-05-15T06:24:13.298Z,10.88
2019-05-15T06:26:44.395Z,10.88
2019-05-15T06:29:17.737Z,10.77
2019-05-15T06:31:48.542Z,10.92
2019-05-15T06:34:19.680Z,10.88
2019-05-15T06:36:50.695Z,10.94
2019-05-15T06:39:21.708Z,11.02
2019-05-15T06:41:52.978Z,10.96
2019-05-15T06:44:24.066Z,11.14
2019-05-15T06:46:55.111Z,11.13
2019-05-15T06:49:28.477Z,11.29
2019-05-15T06:51:58.894Z,11.25
2019-05-15T06:54:29.992Z,11.18
2019-05-15T06:57:01.309Z,11.46
2019-05-15T06:59:32.458Z,11.43
2019-05-15T07:02:03.501Z,11.50
2019-05-15T07:04:34.563Z,11.45
2019-05-15T07:07:08.907Z,11.48
2019-05-15T07:09:38.635Z,11.54
2019-05-15T07:12:11.451Z,11.51
2019-05-15T07:14:42.582Z,11.49
2019-05-15T07:17:13.659Z,11.58
2019-05-15T07:19:44.746Z,11.69
2019-05-15T07:22:18.112Z,11.77
2019-05-15T07:24:48.498Z,11.83
2019-05-15T07:27:19.514Z,11.94
2019-05-15T07:29:50.500Z,11.85
2019-05-15T07:32:21.589Z,11.97
2019-05-15T07:34:53.549Z,12.20
2019-05-15T07:37:25.797Z,12.21
2019-05-15T07:39:59.101Z,12.31
2019-05-15T07:42:30.256Z,12.24
2019-05-15T07:45:01.244Z,12.33
2019-05-15T07:47:32.252Z,12.44
2019-05-15T07:50:03.447Z,12.46
2019-05-15T07:52:34.478Z,12.54
2019-05-15T07:55:08.584Z,12.49
2019-05-15T07:57:39.679Z,12.57
2019-05-15T08:00:11.808Z,12.65
2019-05-15T08:02:42.916Z,12.82
2019-05-15T08:05:14.821Z,12.84
2019-05-15T08:07:46.115Z,12.86
2019-05-15T08:10:18.357Z,12.91
2019-05-15T08:12:49.703Z,13.00
2019-05-15T08:15:21.471Z,13.04
2019-05-15T08:18:07.627Z,13.07
2019-05-15T08:20:28.820Z,13.10
2019-05-15T08:22:59.227Z,13.20
2019-05-15T08:25:35.115Z,13.03
2019-05-15T08:28:04.008Z,13.15
2019-05-15T08:30:35.104Z,13.33
2019-05-15T08:33:08.406Z,13.25
2019-05-15T08:35:44.458Z,13.45
2019-05-15T08:38:14.295Z,13.43
2019-05-15T08:40:45.464Z,13.58
2019-05-15T08:43:18.324Z,13.46
2019-05-15T08:45:50.054Z,13.38
2019-05-15T08:48:21.146Z,13.63
2019-05-15T08:50:52.263Z,13.65
2019-05-15T08:53:23.348Z,13.46
2019-05-15T08:55:54.364Z,13.55
2019-05-15T08:58:25.365Z,13.57
2019-05-15T09:00:58.642Z,13.78
2019-05-15T09:03:29.547Z,14.01
2019-05-15T09:06:00.537Z,14.07
2019-05-15T09:08:31.687Z,14.18
2019-05-15T09:11:03.194Z,14.14
2019-05-15T09:13:34.313Z,14.27
2019-05-15T09:16:08.134Z,14.32
2019-05-15T09:18:39.179Z,14.38
2019-05-15T09:21:10.622Z,14.25
2019-05-15T09:23:41.632Z,14.15
2019-05-15T09:26:12.680Z,14.29
2019-05-15T09:28:44.099Z,14.45
2019-05-15T09:31:15.422Z,14.53
2019-05-15T09:33:49.010Z,14.53
2019-05-15T09:36:20.184Z,14.60
2019-05-15T09:38:51.961Z,14.56
2019-05-15T09:41:23.954Z,14.38
2019-05-15T09:43:55.072Z,14.38
2019-05-15T09:46:26.208Z,14.56
2019-05-15T09:48:59.453Z,14.63
2019-05-15T09:51:31.506Z,14.72
2019-05-15T09:54:02.779Z,14.78
2019-05-15T09:56:33.775Z,14.86
2019-05-15T09:59:04.843Z,15.00
2019-05-15T10:01:35.969Z,14.92
2019-05-15T10:04:08.356Z,14.94
2019-05-15T10:06:39.651Z,14.93
2019-05-15T10:09:10.817Z,15.15
2019-05-15T10:11:41.900Z,15.23
2019-05-15T10:14:13.240Z,15.31
2019-05-15T10:16:44.403Z,15.26
2019-05-15T10:19:18.343Z,15.32
2019-05-15T10:21:53.027Z,15.52
2019-05-15T10:24:21.087Z,15.59
2019-05-15T10:26:53.220Z,15.56
2019-05-15T10:29:24.256Z,15.60
2019-05-15T10:31:55.261Z,15.72
2019-05-15T10:34:28.894Z,15.35
2019-05-15T10:37:00.049Z,15.31
2019-05-15T10:39:31.048Z,15.43
2019-05-15T10:42:02.065Z,15.50
2019-05-15T10:44:33.167Z,15.59
2019-05-15T10:47:04.169Z,15.63
2019-05-15T10:49:36.214Z,15.71
2019-05-15T10:52:08.697Z,15.66
2019-05-15T10:54:40.170Z,15.65
2019-05-15T10:57:11.272Z,15.65
2019-05-15T10:59:42.303Z,15.70
2019-05-15T11:02:13.558Z,15.71
2019-05-15T11:04:44.659Z,15.69
2019-05-15T11:07:15.813Z,15.71
2019-05-15T11:09:48.954Z,15.90
2019-05-15T11:12:20.011Z,15.75
2019-05-15T11:14:51.001Z,15.70
2019-05-15T11:17:22.217Z,15.79
2019-05-15T11:19:53.209Z,15.85
2019-05-15T11:22:24.224Z,15.85
2019-05-15T11:24:55.215Z,15.96
2019-05-15T11:27:31.305Z,15.89
2019-05-15T11:30:01.233Z,15.86
2019-05-15T11:32:32.248Z,15.81
2019-05-15T11:35:04.622Z,15.91
2019-05-15T11:37:43.858Z,16.05
2019-05-15T11:40:10.344Z,15.91
2019-05-15T11:42:42.042Z,15.77
2019-05-15T11:45:15.124Z,15.90
2019-05-15T11:47:48.310Z,15.80
2019-05-15T11:50:21.010Z,15.71
2019-05-15T11:52:52.064Z,15.66
2019-05-15T11:55:23.226Z,15.77
2019-05-15T11:57:55.709Z,15.86
2019-05-15T12:00:30.189Z,15.89
2019-05-15T12:02:59.721Z,15.95
2019-05-15T12:05:31.119Z,16.12
2019-05-15T12:08:02.208Z,16.16
2019-05-15T12:10:33.199Z,16.21
2019-05-15T12:13:04.287Z,16.19
2019-05-15T12:15:35.423Z,16.33
2019-05-15T12:18:08.873Z,16.28
2019-05-15T12:20:40.278Z,16.10
2019-05-15T12:23:11.394Z,16.02
2019-05-15T12:25:42.454Z,15.92
2019-05-15T12:28:14.618Z,16.12
2019-05-15T12:30:49.185Z,16.19
2019-05-15T12:33:20.037Z,16.16
2019-05-15T12:35:51.272Z,16.19
2019-05-15T12:38:22.352Z,16.27
2019-05-15T13:01:18.434Z,16.23
2019-05-15T13:03:48.697Z,16.23
2019-05-15T13:06:20.025Z,16.26
2019-05-15T13:08:51.093Z,15.98
2019-05-15T13:11:22.572Z,16.14
2019-05-15T13:13:53.571Z,16.29
2019-05-15T13:16:24.572Z,16.23
2019-05-15T13:18:55.558Z,16.22
2019-05-15T13:21:26.784Z,16.36
2019-05-15T13:23:59.047Z,16.28
2019-05-15T13:26:30.085Z,16.31
2019-05-15T13:29:01.112Z,16.47
2019-05-15T13:31:32.090Z,16.48
2019-05-15T13:34:03.104Z,16.45
2019-05-15T13:36:34.263Z,16.41
2019-05-15T13:39:06.826Z,16.56
2019-05-15T13:41:38.618Z,16.52
2019-05-15T13:44:09.808Z,16.40
2019-05-15T13:46:40.817Z,16.37
2019-05-15T13:49:11.845Z,16.40
2019-05-15T13:51:42.872Z,16.35
2019-05-15T13:54:13.957Z,16.34
2019-05-15T13:56:44.976Z,16.29
2019-05-15T13:59:16.360Z,16.39
2019-05-15T14:01:48.660Z,16.43
2019-05-15T14:04:20.246Z,16.31
2019-05-15T14:06:51.279Z,16.22
2019-05-15T14:09:23.472Z,16.17
2019-05-15T14:11:55.163Z,16.27
2019-05-15T14:14:28.706Z,16.19
2019-05-15T14:16:59.699Z,16.43
2019-05-15T14:19:30.742Z,16.17
2019-05-15T14:22:01.994Z,16.02
2019-05-15T14:24:33.031Z,16.08
2019-05-15T14:27:04.219Z,16.22
2019-05-15T14:29:35.317Z,16.25
2019-05-15T14:32:08.171Z,16.19
2019-05-15T14:34:39.435Z,16.16
2019-05-15T14:37:10.534Z,16.30
2019-05-15T14:39:41.552Z,16.24
2019-05-15T14:42:12.563Z,16.03
2019-05-15T14:44:43.663Z,16.09
2019-05-15T14:47:14.954Z,16.08
2019-05-15T14:49:49.253Z,16.04
2019-05-15T14:52:18.865Z,15.90
2019-05-15T14:54:49.887Z,16.06
2019-05-15T14:57:20.867Z,15.90
2019-05-15T14:59:51.950Z,15.97
2019-05-15T15:02:22.961Z,15.89
2019-05-15T15:04:53.963Z,15.91
2019-05-15T15:07:24.941Z,15.96
2019-05-15T15:09:58.157Z,15.90
2019-05-15T15:12:29.333Z,16.00
2019-05-15T15:15:00.423Z,15.93
2019-05-15T15:17:31.490Z,16.11
2019-05-15T15:20:02.527Z,16.01
2019-05-15T15:22:34.572Z,16.05
2019-05-15T15:25:06.252Z,15.94
2019-05-15T15:27:38.736Z,15.99
2019-05-15T15:30:11.556Z,16.11
2019-05-15T15:32:42.553Z,15.95
2019-05-15T15:35:13.927Z,15.93
2019-05-15T15:37:44.939Z,15.95
2019-05-15T15:40:18.744Z,15.92
2019-05-15T15:42:49.016Z,15.92
2019-05-15T15:45:21.230Z,16.00
2019-05-15T15:47:52.219Z,16.03
2019-05-15T15:50:25.041Z,16.02
2019-05-15T15:52:56.081Z,16.00
2019-05-15T15:55:29.047Z,15.90
2019-05-15T15:57:59.907Z,15.85
2019-05-15T16:00:31.007Z,15.82
2019-05-15T16:03:02.178Z,15.89
2019-05-15T16:05:33.201Z,15.83
2019-05-15T16:08:04.325Z,15.87
2019-05-15T16:10:37.751Z,15.83
2019-05-15T16:13:09.212Z,15.78
2019-05-15T16:15:40.830Z,15.77
2019-05-15T16:18:12.187Z,15.76
2019-05-15T16:20:43.442Z,15.94
2019-05-15T16:23:14.515Z,15.95
2019-05-15T16:25:45.723Z,15.98
2019-05-15T16:28:18.434Z,15.93
2019-05-15T16:30:51.586Z,15.87
2019-05-15T16:33:22.414Z,15.88
2019-05-15T16:35:53.433Z,15.89
2019-05-15T16:38:24.415Z,15.90
2019-05-15T16:40:55.562Z,15.77
2019-05-15T16:43:28.609Z,15.76
2019-05-15T16:45:59.598Z,15.80
2019-05-15T16:48:30.648Z,15.85
2019-05-15T16:51:01.686Z,15.69
2019-05-15T16:53:32.779Z,15.62
2019-05-15T16:56:03.793Z,15.66
2019-05-15T16:58:34.773Z,15.60
2019-05-15T17:01:05.967Z,15.38
2019-05-15T17:03:38.039Z,15.41
2019-05-15T17:06:09.601Z,15.46
2019-05-15T17:08:40.811Z,15.45
2019-05-15T17:11:11.868Z,15.45
2019-05-15T17:13:42.891Z,15.24
2019-05-15T17:16:13.945Z,15.27
2019-05-15T17:18:45.125Z,15.32
2019-05-15T17:21:18.792Z,15.31
2019-05-15T17:23:49.137Z,15.25
2019-05-15T17:26:20.779Z,15.24
2019-05-15T17:28:51.768Z,15.19
2019-05-15T17:31:22.771Z,15.15
2019-05-15T17:33:53.948Z,15.16
2019-05-15T17:36:25.077Z,15.11
2019-05-15T17:38:57.953Z,15.12
2019-05-15T17:41:29.778Z,15.11
2019-05-15T17:44:00.783Z,15.09
2019-05-15T17:46:31.906Z,15.09
2019-05-15T17:49:08.641Z,15.08
2019-05-15T17:51:38.215Z,14.94
2019-05-15T17:54:09.002Z,14.97
2019-05-15T17:56:40.181Z,14.96
2019-05-15T17:59:11.156Z,14.95
2019-05-15T18:01:42.475Z,14.96
2019-05-15T18:04:14.139Z,14.93
2019-05-15T18:06:48.291Z,14.92
2019-05-15T18:09:20.880Z,14.96
2019-05-15T18:11:51.894Z,14.92
2019-05-15T18:14:23.023Z,14.95
2019-05-15T18:16:54.143Z,14.92
2019-05-15T18:19:25.243Z,14.90
2019-05-15T18:21:59.073Z,14.86
2019-05-15T18:24:29.840Z,14.86
2019-05-15T18:27:00.860Z,14.77
2019-05-15T18:29:32.139Z,14.74
2019-05-15T18:32:03.121Z,14.63
2019-05-15T18:34:34.272Z,14.64
2019-05-15T18:37:05.450Z,14.60
2019-05-15T18:39:38.787Z,14.59
2019-05-15T18:42:09.320Z,14.55
2019-05-15T18:44:40.512Z,14.46
2019-05-15T18:47:11.599Z,14.44
2019-05-15T18:49:44.244Z,14.28
2019-05-15T18:52:18.008Z,14.28
2019-05-15T18:54:48.211Z,14.27
2019-05-15T18:57:19.440Z,14.33
2019-05-15T18:59:50.525Z,14.43
2019-05-15T19:02:21.727Z,14.35
2019-05-15T19:04:52.768Z,14.30
2019-05-15T19:07:24.000Z,14.19
2019-05-15T19:09:55.186Z,14.08
2019-05-15T19:12:28.277Z,14.08
2019-05-15T19:14:59.274Z,14.13
2019-05-15T19:17:30.460Z,14.08
2019-05-15T19:20:01.652Z,14.02
2019-05-15T19:22:33.743Z,13.96
2019-05-15T19:25:05.070Z,13.90
2019-05-15T19:27:38.748Z,13.97
2019-05-15T19:30:09.578Z,13.92
2019-05-15T19:32:40.662Z,13.95
2019-05-15T19:35:12.446Z,13.88
2019-05-15T19:37:43.689Z,13.69
2019-05-15T19:40:15.023Z,13.78
2019-05-15T19:42:48.649Z,13.71
2019-05-15T19:45:19.493Z,13.73
2019-05-15T19:47:50.544Z,13.57
2019-05-15T19:50:21.732Z,13.60
2019-05-15T19:52:52.848Z,13.61
2019-05-15T19:55:23.904Z,13.69
2019-05-15T19:57:55.116Z,13.62
2019-05-15T20:00:28.450Z,13.52
2019-05-15T20:02:59.616Z,13.43
2019-05-15T20:05:31.044Z,13.44
2019-05-15T20:08:02.158Z,13.34
2019-05-15T20:10:33.173Z,13.38
2019-05-15T20:13:04.385Z,13.33
2019-05-15T20:15:37.878Z,13.21
2019-05-15T20:18:08.521Z,13.34
2019-05-15T20:20:40.073Z,13.18
2019-05-15T20:23:11.145Z,13.10
2019-05-15T20:25:42.277Z,13.02
2019-05-15T20:28:13.336Z,13.00
2019-05-15T20:30:45.554Z,12.96
2019-05-15T20:33:18.371Z,12.99
2019-05-15T20:35:49.436Z,12.99
2019-05-15T20:38:20.863Z,12.93
2019-05-15T20:40:51.874Z,12.88
2019-05-15T20:43:22.905Z,12.90
2019-05-15T20:45:53.937Z,12.79
2019-05-15T20:48:25.151Z,12.80
2019-05-15T20:50:58.722Z,12.71
2019-05-15T20:53:29.055Z,12.62
2019-05-15T20:56:00.157Z,12.69
2019-05-15T20:58:31.259Z,12.63
2019-05-15T21:01:02.659Z,12.61
2019-05-15T21:03:33.709Z,12.57
2019-05-15T21:06:05.123Z,12.50
2019-05-15T21:08:37.911Z,12.45
2019-05-15T21:11:12.008Z,12.44
2019-05-15T21:13:41.790Z,12.43
2019-05-15T21:16:12.880Z,12.36
2019-05-15T21:18:44.018Z,12.34
2019-05-15T21:21:15.018Z,12.37
2019-05-15T21:23:46.214Z,12.32
2019-05-15T21:26:18.741Z,12.28
2019-05-15T21:28:50.034Z,12.14
2019-05-15T21:31:22.124Z,12.07
2019-05-15T21:33:53.293Z,11.95
2019-05-15T21:36:24.506Z,11.99
2019-05-15T21:38:55.551Z,11.93
2019-05-15T21:41:27.599Z,11.89
2019-05-15T21:43:59.399Z,11.88
2019-05-15T21:46:30.594Z,11.83
2019-05-15T21:49:01.761Z,11.80
2019-05-15T21:51:32.835Z,11.81
2019-05-15T21:54:04.021Z,11.72
2019-05-15T21:56:35.054Z,11.73
2019-05-15T21:59:08.171Z,11.76
2019-05-15T22:01:40.498Z,11.81
2019-05-15T22:04:11.619Z,11.69
2019-05-15T22:06:42.898Z,11.70
2019-05-15T22:09:18.374Z,11.66
2019-05-15T22:11:49.954Z,11.69
2019-05-15T22:14:21.062Z,11.68
2019-05-15T22:16:52.146Z,11.60
2019-05-15T22:19:23.855Z,11.59
2019-05-15T22:21:54.853Z,11.50
2019-05-15T22:24:28.409Z,11.47
2019-05-15T22:26:58.810Z,11.56
2019-05-15T22:29:29.903Z,11.51
2019-05-15T22:32:00.945Z,11.47
2019-05-15T22:34:32.023Z,11.53
2019-05-15T22:37:03.277Z,11.51
2019-05-15T22:39:34.377Z,11.42
2019-05-15T22:42:08.261Z,11.41
2019-05-15T22:44:39.347Z,11.32
2019-05-15T22:47:10.437Z,11.30
2019-05-15T22:49:41.744Z,11.27
2019-05-15T22:52:12.846Z,11.23
2019-05-15T22:54:44.043Z,11.21
2019-05-15T22:57:15.165Z,11.22
2019-05-15T22:59:46.195Z,11.20
2019-05-15T23:02:17.977Z,11.20
2019-05-15T23:04:51.062Z,11.11
2019-05-15T23:07:22.126Z,11.09
2019-05-15T23:09:53.218Z,11.07
2019-05-15T23:12:24.263Z,11.09
2019-05-15T23:14:55.349Z,10.95
2019-05-15T23:17:27.710Z,10.94
2019-05-15T23:19:59.159Z,10.95
2019-05-15T23:22:30.484Z,10.90
2019-05-15T23:25:01.636Z,10.88
2019-05-15T23:27:32.771Z,10.84
2019-05-15T23:30:04.058Z,10.81
2019-05-15T23:32:35.164Z,10.80
2019-05-15T23:35:06.370Z,10.80
2019-05-15T23:37:39.161Z,10.74
2019-05-15T23:40:10.724Z,10.70
2019-05-15T23:42:41.727Z,10.69
2019-05-15T23:45:13.195Z,10.66
2019-05-15T23:47:44.257Z,10.70
2019-05-15T23:50:15.393Z,10.68
2019-05-15T23:52:48.615Z,10.72
2019-05-15T23:55:19.265Z,10.69
2019-05-15T23:57:50.281Z,10.66
